Time;durP1;ratioP1;P1;durP2;ratioP2;P2;SDS_P1;SDS_P2;PMS_P1;PMS_P2;Temp;Humidity;BMP_temperature;BMP_pressure;BME280_temperature;BME280_humidity;BME280_pressure;Samples;Min_cycle;Max_cycle;Signal;HPM_P1;HPM_P2
2022/10/06 00:02:00;;;;;;;1999.90;999.90;;;14.00;99.90;;;;;;5071001;28;20796;-66
2022/10/06 00:04:28;;;;;;;1999.90;999.90;;;14.00;99.90;;;;;;5071016;28;20447;-66
2022/10/06 00:06:55;;;;;;;1999.90;999.90;;;14.00;99.90;;;;;;5071104;28;20447;-66
2022/10/06 00:09:21;;;;;;;1999.90;999.90;;;14.00;99.90;;;;;;5070873;28;20447;-66
2022/10/06 00:11:48;;;;;;;1999.90;999.90;;;14.00;99.90;;;;;;5071297;28;20446;-66
2022/10/06 00:14:15;;;;;;;1999.90;999.90;;;14.00;99.90;;;;;;5071823;28;20773;-65
2022/10/06 00:16:42;;;;;;;1999.90;999.90;;;14.00;99.90;;;;;;5071516;28;20455;-65
2022/10/06 00:19:08;;;;;;;1999.90;999.90;;;14.00;99.90;;;;;;5071076;28;20521;-66
2022/10/06 00:21:36;;;;;;;1999.90;999.90;;;14.00;99.90;;;;;;5070805;28;20447;-65
2022/10/06 00:24:03;;;;;;;1999.90;999.90;;;14.00;99.90;;;;;;5071071;28;20443;-66
2022/10/06 00:26:30;;;;;;;1999.90;999.90;;;14.10;99.90;;;;;;5071027;28;20478;-66
2022/10/06 00:28:57;;;;;;;1999.90;999.90;;;14.10;99.90;;;;;;5070975;28;20434;-66
2022/10/06 00:31:23;;;;;;;1999.90;999.90;;;14.10;99.90;;;;;;5070870;28;20448;-65
2022/10/06 00:33:50;;;;;;;1999.90;999.90;;;14.10;99.90;;;;;;5070608;28;20453;-65
2022/10/06 00:36:17;;;;;;;1999.90;999.90;;;14.10;99.90;;;;;;5070697;28;20927;-65
2022/10/06 00:38:45;;;;;;;1999.90;999.90;;;14.00;99.90;;;;;;5070722;28;21135;-66
2022/10/06 00:41:15;;;;;;;1999.90;999.90;;;13.90;99.90;;;;;;5070627;28;20467;-66
2022/10/06 00:43:48;;;;;;;1999.90;999.90;;;13.90;99.90;;;;;;5070606;28;20929;-66
2022/10/06 00:46:21;;;;;;;1999.90;999.90;;;14.00;99.90;;;;;;5070545;28;20502;-66
2022/10/06 00:48:53;;;;;;;1999.90;999.90;;;13.90;99.90;;;;;;5070415;28;20439;-65
2022/10/06 00:51:21;;;;;;;1999.90;999.90;;;14.00;99.90;;;;;;5070466;28;20485;-66
2022/10/06 00:53:50;;;;;;;1999.90;999.90;;;13.90;99.90;;;;;;5070437;28;20827;-66
2022/10/06 00:56:17;;;;;;;1999.90;999.90;;;13.90;99.90;;;;;;5070122;28;20463;-66
2022/10/06 00:58:43;;;;;;;1999.90;999.90;;;14.00;99.90;;;;;;5070500;28;20566;-66
2022/10/06 01:01:12;;;;;;;1999.90;999.90;;;13.90;99.90;;;;;;5069890;28;20458;-66
2022/10/06 01:03:43;;;;;;;1999.90;999.90;;;13.90;99.90;;;;;;5069959;28;20447;-66
2022/10/06 01:06:11;;;;;;;1999.90;999.90;;;13.90;99.90;;;;;;5070118;28;20469;-66
2022/10/06 01:08:38;;;;;;;1999.90;999.90;;;13.80;99.90;;;;;;5070170;28;20435;-65
2022/10/06 01:11:11;;;;;;;1999.90;999.90;;;13.80;99.90;;;;;;5069874;28;20443;-66
2022/10/06 01:13:40;;;;;;;1999.90;999.90;;;13.80;99.90;;;;;;5069890;28;20446;-66
2022/10/06 01:16:16;;;;;;;1999.90;999.90;;;13.80;99.90;;;;;;5070146;28;20513;-66
2022/10/06 01:18:44;;;;;;;1999.90;999.90;;;13.80;99.90;;;;;;5070078;28;20487;-65
2022/10/06 01:21:18;;;;;;;1999.90;999.90;;;13.70;99.90;;;;;;5069680;28;20445;-65
2022/10/06 01:23:46;;;;;;;1999.90;999.90;;;13.70;99.90;;;;;;5069779;28;20465;-66
2022/10/06 01:26:15;;;;;;;1999.90;999.90;;;13.60;99.90;;;;;;5069759;28;20459;-66
2022/10/06 01:28:41;;;;;;;1999.90;999.90;;;13.60;99.90;;;;;;5069864;28;20439;-65
2022/10/06 01:31:09;;;;;;;1999.90;999.90;;;13.40;99.90;;;;;;5069823;28;20472;-65
2022/10/06 01:33:36;;;;;;;1999.90;999.90;;;13.30;99.90;;;;;;5069634;28;20819;-65
2022/10/06 01:36:03;;;;;;;1999.90;999.90;;;13.20;99.90;;;;;;5069487;28;20483;-65
2022/10/06 01:38:30;;;;;;;1999.90;999.90;;;13.10;99.90;;;;;;5069660;28;20475;-65
2022/10/06 01:40:58;;;;;;;1999.90;999.90;;;13.00;99.90;;;;;;5069427;28;20448;-65
2022/10/06 01:43:25;;;;;;;1999.90;999.90;;;12.90;99.90;;;;;;5069533;28;20450;-65
2022/10/06 01:45:55;;;;;;;1999.90;999.90;;;12.70;99.90;;;;;;5069768;28;20470;-66
2022/10/06 01:48:22;;;;;;;1999.90;999.90;;;12.60;99.90;;;;;;5069727;28;20821;-66
2022/10/06 01:50:49;;;;;;;1999.90;999.90;;;12.50;99.90;;;;;;5069462;28;20465;-66
2022/10/06 01:53:16;;;;;;;1999.90;999.90;;;12.50;99.90;;;;;;5069255;28;20458;-66
2022/10/06 01:55:43;;;;;;;1999.90;999.90;;;12.40;99.90;;;;;;5069413;28;20462;-66
2022/10/06 01:58:12;;;;;;;1999.90;999.90;;;12.30;99.90;;;;;;5069893;28;20458;-66
2022/10/06 02:00:39;;;;;;;1999.90;999.90;;;12.20;99.90;;;;;;5069444;28;20823;-66
2022/10/06 02:03:06;;;;;;;1999.90;999.90;;;12.10;99.90;;;;;;5069249;28;20477;-66
2022/10/06 02:05:33;;;;;;;1999.90;999.90;;;12.00;99.90;;;;;;5069226;28;20853;-66
2022/10/06 02:08:01;;;;;;;1999.90;999.90;;;11.90;99.90;;;;;;5069361;28;20975;-66
2022/10/06 02:10:28;;;;;;;1999.90;999.90;;;11.90;99.90;;;;;;5073463;28;20434;-66
2022/10/06 02:12:54;;;;;;;1999.90;999.90;;;11.90;99.90;;;;;;5073221;28;20454;-66
2022/10/06 02:15:22;;;;;;;1999.90;999.90;;;11.90;99.90;;;;;;5073301;28;20481;-66
2022/10/06 02:17:49;;;;;;;1999.90;999.90;;;11.80;99.90;;;;;;5073316;28;20443;-66
2022/10/06 02:20:16;;;;;;;1999.90;999.90;;;11.70;99.90;;;;;;5073054;28;20474;-66
2022/10/06 02:22:43;;;;;;;1999.90;999.90;;;11.70;99.90;;;;;;5072834;28;20443;-66
2022/10/06 02:25:11;;;;;;;1999.90;999.90;;;11.70;99.90;;;;;;5073343;28;20478;-66
2022/10/06 02:27:38;;;;;;;1999.90;999.90;;;11.60;99.90;;;;;;5073216;28;20472;-66
2022/10/06 02:30:07;;;;;;;1999.90;999.90;;;11.50;99.90;;;;;;5072755;28;20454;-66
2022/10/06 02:32:36;;;;;;;1999.90;999.90;;;11.50;99.90;;;;;;5072768;28;20442;-66
2022/10/06 02:35:05;;;;;;;1999.90;999.90;;;11.40;99.90;;;;;;5072865;28;20481;-66
2022/10/06 02:37:32;;;;;;;1999.90;999.90;;;11.40;99.90;;;;;;5073256;28;20442;-66
2022/10/06 02:39:59;;;;;;;1999.90;999.90;;;11.50;99.90;;;;;;5073184;28;20478;-66
2022/10/06 02:42:26;;;;;;;1999.90;999.90;;;11.50;99.90;;;;;;5072808;28;20454;-66
2022/10/06 02:44:53;;;;;;;1999.90;999.90;;;11.40;99.90;;;;;;5072682;28;20471;-66
2022/10/06 02:47:21;;;;;;;1999.90;999.90;;;11.40;99.90;;;;;;5072659;28;20454;-66
2022/10/06 02:49:49;;;;;;;1999.90;999.90;;;11.40;99.90;;;;;;5072734;28;20443;-66
2022/10/06 02:52:16;;;;;;;1999.90;999.90;;;11.40;99.90;;;;;;5072431;28;20454;-66
2022/10/06 02:54:43;;;;;;;1999.90;999.90;;;11.40;99.90;;;;;;5072725;28;20459;-66
2022/10/06 02:57:09;;;;;;;1999.90;999.90;;;11.50;99.90;;;;;;5072421;28;20439;-66
2022/10/06 02:59:36;;;;;;;1999.90;999.90;;;11.60;99.90;;;;;;5072341;28;20854;-65
2022/10/06 03:02:03;;;;;;;1999.90;999.90;;;11.70;99.90;;;;;;5072065;28;20972;-65
2022/10/06 03:04:30;;;;;;;1999.90;999.90;;;11.80;99.90;;;;;;5072655;28;20442;-65
2022/10/06 03:06:58;;;;;;;1999.90;999.90;;;11.80;99.90;;;;;;5072469;28;20439;-65
2022/10/06 03:09:25;;;;;;;1999.90;999.90;;;11.90;99.90;;;;;;5072351;28;20450;-65
2022/10/06 03:11:51;;;;;;;1999.90;999.90;;;11.90;99.90;;;;;;5072021;28;20451;-65
2022/10/06 03:14:18;;;;;;;1999.90;999.90;;;11.90;99.90;;;;;;5072095;28;21064;-66
2022/10/06 03:16:45;;;;;;;1999.90;999.90;;;12.00;99.90;;;;;;5072032;28;20454;-65
2022/10/06 03:19:12;;;;;;;1999.90;999.90;;;12.10;99.90;;;;;;5071845;28;20490;-65
2022/10/06 03:21:42;;;;;;;1999.90;999.90;;;12.10;99.90;;;;;;5071737;28;20933;-65
2022/10/06 03:24:10;;;;;;;1999.90;999.90;;;12.20;99.90;;;;;;5071972;28;20446;-65
2022/10/06 03:26:38;;;;;;;1999.90;999.90;;;12.20;99.90;;;;;;5071965;28;20957;-65
2022/10/06 03:29:06;;;;;;;1999.90;999.90;;;12.20;99.90;;;;;;5071705;28;20451;-65
2022/10/06 03:31:33;;;;;;;1999.90;999.90;;;12.20;99.90;;;;;;5071405;28;20455;-65
2022/10/06 03:34:00;;;;;;;1999.90;999.90;;;12.20;99.90;;;;;;5071792;28;20450;-65
2022/10/06 03:36:28;;;;;;;1999.90;999.90;;;12.20;99.90;;;;;;5071929;28;20471;-66
2022/10/06 03:38:55;;;;;;;1999.90;999.90;;;12.30;99.90;;;;;;5071494;28;20453;-66
2022/10/06 03:41:25;;;;;;;1999.90;999.90;;;12.30;99.90;;;;;;5071675;28;20474;-66
2022/10/06 03:43:54;;;;;;;1999.90;999.90;;;12.20;99.90;;;;;;5071387;28;20458;-66
2022/10/06 03:46:24;;;;;;;1999.90;999.90;;;12.20;99.90;;;;;;5071564;28;20474;-66
2022/10/06 03:48:52;;;;;;;1999.90;999.90;;;12.10;99.90;;;;;;5071492;28;20446;-66
2022/10/06 03:51:21;;;;;;;1999.90;999.90;;;12.10;99.90;;;;;;5071354;28;20504;-66
2022/10/06 03:53:49;;;;;;;1999.90;999.90;;;12.10;99.90;;;;;;5071280;28;20447;-66
2022/10/06 03:56:19;;;;;;;1999.90;999.90;;;12.20;99.90;;;;;;5071107;28;20479;-66
2022/10/06 03:58:51;;;;;;;1999.90;999.90;;;12.20;99.90;;;;;;5071362;28;20446;-66
2022/10/06 04:01:20;;;;;;;1999.90;999.90;;;12.30;99.90;;;;;;5070946;28;21000;-66
2022/10/06 04:03:47;;;;;;;1999.90;999.90;;;12.40;99.90;;;;;;5071023;28;20450;-66
2022/10/06 04:06:17;;;;;;;1999.90;999.90;;;12.40;99.90;;;;;;5070863;28;20469;-66
2022/10/06 04:08:45;;;;;;;1999.90;999.90;;;12.40;99.90;;;;;;5070757;28;20445;-66
2022/10/06 04:11:14;;;;;;;1999.90;999.90;;;12.50;99.90;;;;;;5070680;28;20443;-66
2022/10/06 04:13:42;;;;;;;1999.90;999.90;;;12.50;99.90;;;;;;5070894;28;20447;-66
2022/10/06 04:16:12;;;;;;;1999.90;999.90;;;12.50;99.90;;;;;;5071178;28;20838;-66
2022/10/06 04:18:39;;;;;;;1999.90;999.90;;;12.60;99.90;;;;;;5070985;28;20470;-66
2022/10/06 04:21:06;;;;;;;1999.90;999.90;;;12.70;99.90;;;;;;5070731;28;20482;-65
2022/10/06 04:23:35;;;;;;;1999.90;999.90;;;12.70;99.90;;;;;;5070460;28;20447;-66
2022/10/06 04:26:05;;;;;;;1999.90;999.90;;;12.70;99.90;;;;;;5070696;28;20471;-66
2022/10/06 04:28:32;;;;;;;1999.90;999.90;;;12.80;99.90;;;;;;5070555;28;20603;-66
2022/10/06 04:31:00;;;;;;;1999.90;999.90;;;12.80;99.90;;;;;;5069506;28;20447;-65
2022/10/06 04:33:29;;;;;;;1999.90;999.90;;;12.80;99.90;;;;;;5067563;28;20945;-66
2022/10/06 04:35:59;;;;;;;1999.90;999.90;;;12.80;99.90;;;;;;5068473;28;20481;-66
2022/10/06 04:38:28;;;;;;;1999.90;999.90;;;12.80;99.90;;;;;;5070490;28;20447;-67
2022/10/06 04:40:56;;;;;;;1999.90;999.90;;;12.80;99.90;;;;;;5070009;28;20483;-66
2022/10/06 04:43:23;;;;;;;1999.90;999.90;;;12.70;99.90;;;;;;5070623;28;20451;-67
2022/10/06 04:45:57;;;;;;;1999.90;999.90;;;12.70;99.90;;;;;;5070569;28;21007;-69
2022/10/06 04:48:24;;;;;;;1999.90;999.90;;;12.70;99.90;;;;;;5070685;28;20497;-64
2022/10/06 04:50:57;;;;;;;1999.90;999.90;;;12.70;99.90;;;;;;5070679;28;20443;-67
2022/10/06 04:53:24;;;;;;;1999.90;999.90;;;12.70;99.90;;;;;;5070210;28;20957;-66
2022/10/06 04:55:59;;;;;;;1999.90;999.90;;;12.80;99.90;;;;;;5070305;28;20471;-65
2022/10/06 04:58:26;;;;;;;1999.90;999.90;;;12.80;99.90;;;;;;5070280;28;20875;-66
2022/10/06 05:00:54;;;;;;;1999.90;999.90;;;12.90;99.90;;;;;;5069668;28;21012;-67
2022/10/06 05:03:21;;;;;;;1999.90;999.90;;;13.00;99.90;;;;;;5070001;28;20485;-67
2022/10/06 05:05:47;;;;;;;1999.90;999.90;;;13.10;99.90;;;;;;5068666;28;20471;-66
2022/10/06 05:08:16;;;;;;;1999.90;999.90;;;13.10;99.90;;;;;;5057047;28;20946;-66
2022/10/06 05:10:42;;;;;;;1999.90;999.90;;;13.20;99.90;;;;;;5051032;28;20436;-66
2022/10/06 05:13:10;;;;;;;1999.90;999.90;;;13.30;99.90;;;;;;5052874;28;20921;-66
2022/10/06 05:15:37;;;;;;;1999.90;999.90;;;13.30;99.90;;;;;;5056712;28;20465;-66
2022/10/06 05:18:04;;;;;;;1999.90;999.90;;;13.40;99.90;;;;;;5064765;28;20530;-66
2022/10/06 05:20:30;;;;;;;1999.90;999.90;;;13.40;99.90;;;;;;5067188;28;20479;-66
2022/10/06 05:22:57;;;;;;;1999.90;999.90;;;13.40;99.90;;;;;;5069623;28;20443;-66
2022/10/06 05:25:25;;;;;;;1999.90;999.90;;;13.40;99.90;;;;;;5068315;28;20463;-66
2022/10/06 05:27:52;;;;;;;1999.90;999.90;;;13.50;99.90;;;;;;5069551;28;20447;-66
2022/10/06 05:30:19;;;;;;;1999.90;999.90;;;13.60;99.90;;;;;;5070186;28;20446;-66
2022/10/06 05:32:49;;;;;;;1999.90;999.90;;;13.60;99.90;;;;;;5069770;28;20451;-66
2022/10/06 05:35:16;;;;;;;1999.90;999.90;;;13.60;99.90;;;;;;5069702;28;20885;-70
2022/10/06 05:37:42;;;;;;;1999.90;999.90;;;13.60;99.90;;;;;;5069507;28;20831;-66
2022/10/06 05:40:10;;;;;;;1999.90;999.90;;;13.60;99.90;;;;;;5069511;28;20479;-66
2022/10/06 05:42:39;;;;;;;1999.90;999.90;;;13.60;99.90;;;;;;5071216;28;20446;-67
2022/10/06 05:45:06;;;;;;;1999.90;999.90;;;13.60;99.90;;;;;;5076132;28;20463;-66
2022/10/06 05:47:33;;;;;;;1999.90;999.90;;;13.60;99.90;;;;;;5076359;28;20450;-66
2022/10/06 05:50:00;;;;;;;1999.90;999.90;;;13.70;99.90;;;;;;5076226;28;20827;-66
2022/10/06 05:52:27;;;;;;;1999.90;999.90;;;13.70;99.90;;;;;;5075875;28;20504;-66
2022/10/06 05:54:54;;;;;;;1999.90;999.90;;;13.70;99.90;;;;;;5075966;28;20472;-66
2022/10/06 05:57:21;;;;;;;1999.90;999.90;;;13.70;99.90;;;;;;5076085;28;20439;-66
2022/10/06 05:59:49;;;;;;;1999.90;999.90;;;13.80;99.90;;;;;;5076278;28;20466;-66
2022/10/06 06:02:16;;;;;;;1999.90;999.90;;;13.80;99.90;;;;;;5075938;28;20450;-66
2022/10/06 06:04:43;;;;;;;1999.90;999.90;;;13.80;99.90;;;;;;5076061;28;20541;-66
2022/10/06 06:07:09;;;;;;;1999.90;999.90;;;13.80;99.90;;;;;;5076180;28;20439;-66
2022/10/06 06:09:36;;;;;;;1999.90;999.90;;;13.80;99.90;;;;;;5075867;28;20447;-66
2022/10/06 06:12:03;;;;;;;1999.90;999.90;;;13.80;99.90;;;;;;5075946;28;20831;-67
2022/10/06 06:17:12;;;;;;;1999.90;999.90;;;13.80;99.90;;;;;;5075721;28;20525;-66
2022/10/06 06:19:39;;;;;;;1999.90;999.90;;;13.90;99.90;;;;;;5075880;28;20450;-67
2022/10/06 06:22:05;;;;;;;1999.90;999.90;;;13.90;99.90;;;;;;5075483;28;20853;-67
2022/10/06 06:24:32;;;;;;;1999.90;999.90;;;13.90;99.90;;;;;;5075738;28;20443;-67
2022/10/06 06:26:59;;;;;;;1999.90;999.90;;;13.90;99.90;;;;;;5075905;28;20446;-66
2022/10/06 06:29:26;;;;;;;1999.90;999.90;;;14.00;99.90;;;;;;5076102;28;20520;-66
2022/10/06 06:31:53;;;;;;;1999.90;999.90;;;14.00;99.90;;;;;;5075568;28;20478;-66
2022/10/06 06:34:21;;;;;;;1999.90;999.90;;;14.10;99.90;;;;;;5075693;28;20448;-66
2022/10/06 06:36:52;;;;;;;1999.90;999.90;;;14.10;99.90;;;;;;5075772;28;20446;-66
2022/10/06 06:39:20;;;;;;;1999.90;999.90;;;14.10;99.90;;;;;;5076157;28;20461;-66
2022/10/06 06:41:47;;;;;;;1999.90;999.90;;;14.20;99.90;;;;;;5075370;28;20540;-66
2022/10/06 06:44:15;;;;;;;1999.90;999.90;;;14.30;99.90;;;;;;5075759;28;20929;-67
2022/10/06 06:46:44;;;;;;;1999.90;999.90;;;14.40;99.90;;;;;;5075932;28;20512;-68
2022/10/06 06:49:12;;;;;;;1999.90;999.90;;;14.40;99.90;;;;;;5075888;28;20450;-66
2022/10/06 06:51:42;;;;;;;1999.90;999.90;;;14.40;99.90;;;;;;5075675;28;20439;-66
2022/10/06 06:54:11;;;;;;;1999.90;999.90;;;14.50;99.90;;;;;;5074027;28;20964;-66
2022/10/06 06:56:38;;;;;;;1999.90;999.90;;;14.60;99.90;;;;;;5072503;28;20558;-66
2022/10/06 06:59:10;;;;;;;1999.90;999.90;;;14.70;99.90;;;;;;5072418;28;20505;-66
2022/10/06 07:01:38;;;;;;;1999.90;999.90;;;14.70;99.90;;;;;;5071892;28;20479;-66
2022/10/06 07:04:05;;;;;;;1999.90;999.90;;;14.80;99.90;;;;;;5072237;28;20439;-67
2022/10/06 07:06:32;;;;;;;1999.90;999.90;;;14.90;99.90;;;;;;5072265;28;20508;-67
2022/10/06 07:09:00;;;;;;;1999.90;999.90;;;15.10;99.90;;;;;;5072276;28;20443;-66
2022/10/06 07:11:28;;;;;;;1999.90;999.90;;;15.20;99.90;;;;;;5071912;28;20800;-67
2022/10/06 07:13:59;;;;;;;1999.90;999.90;;;15.30;99.90;;;;;;5071937;28;20867;-66
2022/10/06 07:25:15;;;;;;;1999.90;999.90;;;15.80;99.90;;;;;;5065333;28;20887;-66
2022/10/06 07:27:43;;;;;;;1999.90;999.90;;;15.90;99.90;;;;;;5072457;28;20447;-67
2022/10/06 07:30:12;;;;;;;1999.90;999.90;;;16.00;99.90;;;;;;5059220;28;20464;-68
2022/10/06 07:32:39;;;;;;;1999.90;999.90;;;16.10;99.90;;;;;;5070236;28;20439;-66
2022/10/06 07:35:07;;;;;;;1999.90;999.90;;;16.10;99.90;;;;;;5070185;28;20475;-66
2022/10/06 07:37:36;;;;;;;1999.90;999.90;;;16.10;99.90;;;;;;5070583;28;20795;-66
2022/10/06 07:40:05;;;;;;;1999.90;999.90;;;16.20;99.90;;;;;;5070764;28;20450;-66
2022/10/06 07:42:46;;;;;;;1999.90;999.90;;;16.20;99.90;;;;;;5070323;28;20458;-67
2022/10/06 07:47:59;;;;;;;1999.90;999.90;;;16.20;99.90;;;;;;5070294;28;20481;-67
2022/10/06 07:50:26;;;;;;;1999.90;999.90;;;16.30;99.90;;;;;;5070463;28;20435;-66
2022/10/06 07:52:53;;;;;;;1999.90;999.90;;;16.30;99.90;;;;;;5069479;28;20451;-67
2022/10/06 07:55:20;;;;;;;1999.90;999.90;;;16.30;99.90;;;;;;5069781;28;20459;-67
2022/10/06 07:57:50;;;;;;;1999.90;999.90;;;16.30;99.90;;;;;;5070015;28;20454;-67
2022/10/06 08:00:19;;;;;;;1999.90;999.90;;;16.30;99.90;;;;;;5069928;28;20451;-67
2022/10/06 08:02:46;;;;;;;1999.90;999.90;;;16.40;99.90;;;;;;5069635;28;20512;-67
2022/10/06 08:05:13;;;;;;;1999.90;999.90;;;16.40;99.90;;;;;;5069658;28;20459;-66
2022/10/06 08:07:40;;;;;;;1999.90;999.90;;;16.50;99.90;;;;;;5069163;28;20797;-66
2022/10/06 08:10:07;;;;;;;1999.90;999.90;;;16.50;99.90;;;;;;5069989;28;20443;-67
2022/10/06 08:12:36;;;;;;;1999.90;999.90;;;16.50;99.90;;;;;;5069342;28;20808;-67
2022/10/06 08:15:05;;;;;;;1999.90;999.90;;;16.60;99.90;;;;;;5069777;28;20471;-67
2022/10/06 08:17:33;;;;;;;1999.90;999.90;;;16.60;99.90;;;;;;5069847;28;20447;-67
2022/10/06 08:20:00;;;;;;;1999.90;999.90;;;16.60;99.90;;;;;;5069948;28;20447;-67
2022/10/06 08:22:28;;;;;;;1999.90;999.90;;;16.60;99.90;;;;;;5069164;28;20489;-67
2022/10/06 08:24:56;;;;;;;1999.90;999.90;;;16.70;99.90;;;;;;5069605;28;20631;-67
2022/10/06 08:27:23;;;;;;;1999.90;999.90;;;16.70;99.90;;;;;;5069191;28;20602;-68
2022/10/06 08:29:50;;;;;;;1999.90;999.90;;;16.80;99.90;;;;;;5069477;28;20983;-67
2022/10/06 08:32:19;;;;;;;1999.90;999.90;;;16.80;99.90;;;;;;5068883;28;20937;-67
2022/10/06 08:34:46;;;;;;;1999.90;999.90;;;16.70;99.90;;;;;;5069224;28;20540;-66
2022/10/06 08:37:13;;;;;;;1999.90;999.90;;;16.60;99.90;;;;;;5069519;28;20443;-67
2022/10/06 08:39:41;;;;;;;1999.90;999.90;;;16.60;99.90;;;;;;5068467;28;20474;-68
2022/10/06 08:42:13;;;;;;;1999.90;999.90;;;16.60;99.90;;;;;;5068658;28;20479;-66
2022/10/06 08:44:44;;;;;;;1999.90;999.90;;;16.70;99.90;;;;;;5069024;28;20475;-67
2022/10/06 08:47:14;;;;;;;1999.90;999.90;;;16.90;99.90;;;;;;5069195;28;20865;-66
2022/10/06 08:49:44;;;;;;;1999.90;999.90;;;17.00;99.90;;;;;;5068921;28;20446;-67
2022/10/06 08:52:24;;;;;;;1999.90;999.90;;;17.10;99.90;;;;;;5068296;28;20526;-67
2022/10/06 08:54:58;;;;;;;1999.90;999.90;;;17.20;99.90;;;;;;5069581;28;20528;-67
2022/10/06 08:57:30;;;;;;;1999.90;999.90;;;17.30;99.90;;;;;;5069968;28;20447;-67
2022/10/06 08:59:58;;;;;;;1999.90;999.90;;;17.30;99.90;;;;;;5070055;28;20447;-67
2022/10/06 09:02:29;;;;;;;1999.90;999.90;;;17.30;99.90;;;;;;5069675;28;20467;-67
2022/10/06 09:05:00;;;;;;;1999.90;999.90;;;17.30;99.90;;;;;;5069906;28;20807;-67
2022/10/06 09:07:38;;;;;;;1999.90;999.90;;;17.40;99.90;;;;;;5069955;28;20450;-67
2022/10/06 09:10:31;;;;;;;1999.90;999.90;;;17.50;99.90;;;;;;5069939;28;20447;-67
2022/10/06 09:13:03;;;;;;;1999.90;999.90;;;17.50;99.90;;;;;;5069215;28;20444;-67
2022/10/06 09:15:34;;;;;;;1999.90;999.90;;;17.60;99.90;;;;;;5069824;28;20552;-67
2022/10/06 09:18:09;;;;;;;1999.90;999.90;;;17.60;99.90;;;;;;5069764;28;20466;-67
2022/10/06 09:20:43;;;;;;;1999.90;999.90;;;17.60;99.90;;;;;;5069459;28;20478;-67
2022/10/06 09:23:15;;;;;;;1999.90;999.90;;;17.60;99.90;;;;;;5069755;28;20971;-67
2022/10/06 09:25:43;;;;;;;1999.90;999.90;;;17.70;99.90;;;;;;5069704;28;20468;-67
2022/10/06 09:28:14;;;;;;;1999.90;999.90;;;17.70;99.90;;;;;;5069844;28;20556;-67
2022/10/06 09:30:42;;;;;;;1999.90;999.90;;;17.90;99.90;;;;;;5069520;28;20447;-67
2022/10/06 09:33:19;;;;;;;1999.90;999.90;;;18.00;99.90;;;;;;5069647;28;20443;-67
2022/10/06 09:36:05;;;;;;;1999.90;999.90;;;18.00;99.90;;;;;;5069448;28;20490;-67
2022/10/06 09:38:47;;;;;;;1999.90;999.90;;;18.20;99.90;;;;;;5069812;28;20446;-67
2022/10/06 09:41:15;;;;;;;1999.90;999.90;;;18.20;99.90;;;;;;5069539;28;20475;-68
2022/10/06 09:43:52;;;;;;;1999.90;999.90;;;18.30;99.90;;;;;;5069480;28;20443;-67
2022/10/06 09:46:21;;;;;;;1999.90;999.90;;;18.40;99.90;;;;;;5069288;28;20478;-67
2022/10/06 09:48:48;;;;;;;1999.90;999.90;;;18.70;99.90;;;;;;5069818;28;20443;-67
2022/10/06 09:51:18;;;;;;;1999.90;999.90;;;18.90;99.90;;;;;;5069406;28;20527;-67
2022/10/06 09:54:09;;;;;;;1999.90;999.90;;;18.80;99.90;;;;;;5069541;28;20439;-67
2022/10/06 09:56:40;;;;;;;1999.90;999.90;;;18.90;99.90;;;;;;5069317;28;20467;-67
2022/10/06 09:59:20;;;;;;;1999.90;999.90;;;18.80;99.90;;;;;;5069566;28;20455;-67
2022/10/06 10:01:51;;;;;;;1999.90;999.90;;;18.60;99.90;;;;;;5069191;28;20482;-67
2022/10/06 10:04:23;;;;;;;1999.90;999.90;;;18.50;99.90;;;;;;5069332;28;20450;-67
2022/10/06 10:06:52;;;;;;;1999.90;999.90;;;18.60;99.90;;;;;;5069457;28;20446;-67
2022/10/06 10:09:27;;;;;;;1999.90;999.90;;;18.80;99.90;;;;;;5069129;28;20443;-67
2022/10/06 10:12:26;;;;;;;1999.90;999.90;;;18.80;99.90;;;;;;5069113;28;20434;-67
2022/10/06 10:14:56;;;;;;;1999.90;999.90;;;19.10;99.90;;;;;;5069370;28;20843;-67
2022/10/06 10:17:37;;;;;;;1999.90;999.90;;;19.40;99.90;;;;;;5069183;28;20999;-67
2022/10/06 10:20:18;;;;;;;1999.90;999.90;;;19.50;99.90;;;;;;5069352;28;20435;-67
2022/10/06 10:22:47;;;;;;;1999.90;999.90;;;19.80;99.90;;;;;;5068794;28;20503;-67
2022/10/06 10:25:29;;;;;;;1999.90;999.90;;;20.00;99.90;;;;;;5069070;28;20459;-67
2022/10/06 10:28:02;;;;;;;1999.90;999.90;;;19.80;99.90;;;;;;5068985;28;20447;-67
2022/10/06 10:30:31;;;;;;;1999.90;999.90;;;19.80;99.90;;;;;;5071684;28;20446;-67
2022/10/06 10:33:04;;;;;;;1999.90;999.90;;;20.10;99.90;;;;;;5072692;28;20443;-67
2022/10/06 10:35:34;;;;;;;1999.90;999.90;;;20.50;99.90;;;;;;5072801;28;20509;-67
2022/10/06 10:38:07;;;;;;;1999.90;999.90;;;20.40;99.90;;;;;;5072728;28;20450;-67
2022/10/06 10:40:38;;;;;;;1999.90;999.90;;;20.30;99.90;;;;;;5072455;28;20469;-67
2022/10/06 10:43:19;;;;;;;1999.90;999.90;;;20.40;99.90;;;;;;5072393;28;20858;-67
2022/10/06 10:45:49;;;;;;;1999.90;999.90;;;20.50;99.90;;;;;;5072682;28;20470;-67
2022/10/06 10:48:22;;;;;;;1999.90;999.90;;;20.40;99.90;;;;;;5072567;28;20469;-67
2022/10/06 10:51:01;;;;;;;1999.90;999.90;;;20.40;99.90;;;;;;5072096;28;20447;-67
2022/10/06 10:53:38;;;;;;;1999.90;999.90;;;20.50;99.90;;;;;;5071332;28;20435;-67
2022/10/06 10:56:08;;;;;;;1999.90;999.90;;;20.80;99.90;;;;;;5072477;28;20459;-67
2022/10/06 10:58:38;;;;;;;1999.90;999.90;;;21.10;99.90;;;;;;5072595;28;20442;-67
2022/10/06 11:01:14;;;;;;;1999.90;999.90;;;21.30;99.90;;;;;;5070894;28;20455;-67
2022/10/06 11:03:41;;;;;;;1999.90;999.90;;;21.90;99.90;;;;;;5071193;28;20442;-67
2022/10/06 11:06:43;;;;;;;1999.90;999.90;;;22.00;99.90;;;;;;5072623;28;20467;-67
2022/10/06 11:09:15;;;;;;;1999.90;999.90;;;21.50;99.90;;;;;;5072553;28;20484;-68
2022/10/06 11:11:56;;;;;;;1999.90;999.90;;;21.00;99.90;;;;;;5071225;28;20443;-67
2022/10/06 11:14:34;;;;;;;1999.90;999.90;;;20.40;99.90;;;;;;5072559;28;20446;-67
2022/10/06 11:17:07;;;;;;;1999.90;999.90;;;20.10;99.90;;;;;;5071805;28;20462;-67
2022/10/06 11:19:43;;;;;;;1999.90;999.90;;;19.90;99.90;;;;;;5072385;28;20455;-67
2022/10/06 11:22:17;;;;;;;1999.90;999.90;;;20.00;99.90;;;;;;5071508;28;20479;-67
2022/10/06 11:24:56;;;;;;;1999.90;999.90;;;20.00;99.90;;;;;;5072273;28;20467;-67
2022/10/06 11:27:34;;;;;;;1999.90;999.90;;;19.80;99.90;;;;;;5072003;28;20449;-68
2022/10/06 11:30:05;;;;;;;1999.90;999.90;;;19.60;99.90;;;;;;5071855;28;20979;-68
2022/10/06 11:32:45;;;;;;;1999.90;999.90;;;19.40;99.90;;;;;;5068941;28;20443;-67
2022/10/06 11:35:19;;;;;;;1999.90;999.90;;;19.90;99.90;;;;;;5070313;28;20525;-68
2022/10/06 11:37:50;;;;;;;1999.90;999.90;;;21.20;99.90;;;;;;5051884;28;20444;-66
2022/10/06 11:40:32;;;;;;;1999.90;999.90;;;22.90;99.90;;;;;;5051182;28;21144;-67
2022/10/06 11:43:05;;;;;;;1999.90;999.90;;;25.20;99.90;;;;;;5050873;28;20858;-68
2022/10/06 11:45:40;;;;;;;1999.90;999.90;;;26.20;96.10;;;;;;5051536;28;20468;-68
2022/10/06 11:48:25;;;;;;;1999.90;999.90;;;25.90;96.90;;;;;;5051571;28;20447;-65
2022/10/06 11:50:54;;;;;;;1999.90;999.90;;;25.60;95.50;;;;;;5050280;28;20460;-68
2022/10/06 11:53:37;;;;;;;1999.90;999.90;;;24.70;96.00;;;;;;5051119;28;20541;-67
2022/10/06 11:56:35;;;;;;;1999.90;999.90;;;23.60;97.80;;;;;;5051069;28;20467;-67
2022/10/06 11:59:10;;;;;;;1999.90;999.90;;;23.90;99.30;;;;;;5051023;28;20448;-67
2022/10/06 12:01:58;;;;;;;1999.90;999.90;;;23.80;98.60;;;;;;5059744;28;20443;-67
2022/10/06 12:04:26;;;;;;;1999.90;999.90;;;24.10;98.20;;;;;;5069184;28;20823;-67
2022/10/06 12:07:03;;;;;;;1999.90;999.90;;;24.30;98.10;;;;;;5070974;28;20447;-68
2022/10/06 12:09:51;;;;;;;1999.90;999.90;;;24.50;97.00;;;;;;5070851;28;20819;-68
2022/10/06 12:12:55;;;;;;;1999.90;999.90;;;24.70;97.30;;;;;;5064231;28;20446;-68
2022/10/06 12:15:43;;;;;;;1999.90;999.90;;;25.10;96.40;;;;;;5068623;28;20467;-68
2022/10/06 12:18:22;;;;;;;1999.90;999.90;;;24.60;96.00;;;;;;5070491;28;20443;-67
2022/10/06 12:21:05;;;;;;;1999.90;999.90;;;23.80;97.20;;;;;;5051100;28;20463;-67
2022/10/06 12:23:44;;;;;;;1999.90;999.90;;;23.00;99.30;;;;;;5050123;28;21095;-67
2022/10/06 12:26:30;;;;;;;1999.90;999.90;;;22.40;99.90;;;;;;5061026;28;20466;-67
2022/10/06 12:29:03;;;;;;;1999.90;999.90;;;22.80;99.90;;;;;;5066973;28;20474;-67